sensor_id;sensor_type;location;lat;lon;timestamp;temperature;humidity
20208;DHT22;10263;48.716;8.760;2023-05-07T00:02:49;11.70;99.90
20208;DHT22;10263;48.716;8.760;2023-05-07T00:05:16;11.40;99.90
20208;DHT22;10263;48.716;8.760;2023-05-07T00:07:43;11.40;99.90
20208;DHT22;10263;48.716;8.760;2023-05-07T00:10:11;11.20;99.90
20208;DHT22;10263;48.716;8.760;2023-05-07T00:12:39;11.50;99.90
20208;DHT22;10263;48.716;8.760;2023-05-07T00:15:07;11.40;99.90
20208;DHT22;10263;48.716;8.760;2023-05-07T00:17:34;11.30;99.90
20208;DHT22;10263;48.716;8.760;2023-05-07T00:20:03;11.30;99.90
20208;DHT22;10263;48.716;8.760;2023-05-07T00:22:30;11.50;99.90
20208;DHT22;10263;48.716;8.760;2023-05-07T00:24:57;11.50;99.90
20208;DHT22;10263;48.716;8.760;2023-05-07T00:27:24;11.10;99.90
20208;DHT22;10263;48.716;8.760;2023-05-07T00:29:51;11.00;99.90
20208;DHT22;10263;48.716;8.760;2023-05-07T00:32:18;11.10;99.90
20208;DHT22;10263;48.716;8.760;2023-05-07T00:34:45;10.90;99.90
20208;DHT22;10263;48.716;8.760;2023-05-07T00:37:13;11.30;99.90
20208;DHT22;10263;48.716;8.760;2023-05-07T00:42:07;11.20;99.90
20208;DHT22;10263;48.716;8.760;2023-05-07T00:44:34;11.20;99.90
20208;DHT22;10263;48.716;8.760;2023-05-07T00:47:02;10.80;99.90
20208;DHT22;10263;48.716;8.760;2023-05-07T00:49:37;10.90;99.90
20208;DHT22;10263;48.716;8.760;2023-05-07T00:52:05;11.00;99.90
20208;DHT22;10263;48.716;8.760;2023-05-07T00:54:35;10.90;99.90
20208;DHT22;10263;48.716;8.760;2023-05-07T00:57:03;10.80;99.90
20208;DHT22;10263;48.716;8.760;2023-05-07T00:59:30;11.20;99.90
20208;DHT22;10263;48.716;8.760;2023-05-07T01:01:58;10.70;99.90
20208;DHT22;10263;48.716;8.760;2023-05-07T01:04:25;11.20;99.90
20208;DHT22;10263;48.716;8.760;2023-05-07T01:06:52;10.70;99.90
20208;DHT22;10263;48.716;8.760;2023-05-07T01:09:21;11.10;99.90
20208;DHT22;10263;48.716;8.760;2023-05-07T01:11:50;10.90;99.90
20208;DHT22;10263;48.716;8.760;2023-05-07T01:14:17;10.80;99.90
20208;DHT22;10263;48.716;8.760;2023-05-07T01:16:46;10.90;99.90
20208;DHT22;10263;48.716;8.760;2023-05-07T01:19:14;11.00;99.90
20208;DHT22;10263;48.716;8.760;2023-05-07T01:21:45;10.70;99.90
20208;DHT22;10263;48.716;8.760;2023-05-07T01:24:15;10.70;99.90
20208;DHT22;10263;48.716;8.760;2023-05-07T01:26:42;10.60;99.90
20208;DHT22;10263;48.716;8.760;2023-05-07T01:29:09;10.60;99.90
20208;DHT22;10263;48.716;8.760;2023-05-07T01:31:37;10.50;99.90
20208;DHT22;10263;48.716;8.760;2023-05-07T01:34:06;11.00;99.90
20208;DHT22;10263;48.716;8.760;2023-05-07T01:36:37;10.50;99.90
20208;DHT22;10263;48.716;8.760;2023-05-07T01:39:05;10.60;99.90
20208;DHT22;10263;48.716;8.760;2023-05-07T01:41:34;10.40;99.90
20208;DHT22;10263;48.716;8.760;2023-05-07T01:44:01;10.50;99.90
20208;DHT22;10263;48.716;8.760;2023-05-07T01:46:30;10.80;99.90
20208;DHT22;10263;48.716;8.760;2023-05-07T01:48:57;10.60;99.90
20208;DHT22;10263;48.716;8.760;2023-05-07T01:53:53;10.30;99.90
20208;DHT22;10263;48.716;8.760;2023-05-07T01:56:20;10.40;99.90
20208;DHT22;10263;48.716;8.760;2023-05-07T01:58:49;10.50;99.90
20208;DHT22;10263;48.716;8.760;2023-05-07T02:01:17;10.50;99.90
20208;DHT22;10263;48.716;8.760;2023-05-07T02:06:19;10.40;99.90
20208;DHT22;10263;48.716;8.760;2023-05-07T02:11:15;10.60;99.90
20208;DHT22;10263;48.716;8.760;2023-05-07T02:16:10;10.50;99.90
20208;DHT22;10263;48.716;8.760;2023-05-07T02:18:39;10.50;99.90
20208;DHT22;10263;48.716;8.760;2023-05-07T02:23:33;10.30;99.90
20208;DHT22;10263;48.716;8.760;2023-05-07T02:28:28;10.50;99.90
20208;DHT22;10263;48.716;8.760;2023-05-07T02:30:59;10.00;99.90
20208;DHT22;10263;48.716;8.760;2023-05-07T02:33:28;10.00;99.90
20208;DHT22;10263;48.716;8.760;2023-05-07T02:38:23;10.20;99.90
20208;DHT22;10263;48.716;8.760;2023-05-07T02:43:17;10.50;99.90
20208;DHT22;10263;48.716;8.760;2023-05-07T02:45:46;10.20;99.90
20208;DHT22;10263;48.716;8.760;2023-05-07T02:48:14;10.00;99.90
20208;DHT22;10263;48.716;8.760;2023-05-07T02:50:42;10.00;99.90
20208;DHT22;10263;48.716;8.760;2023-05-07T02:53:10;9.80;99.90
20208;DHT22;10263;48.716;8.760;2023-05-07T02:55:37;9.80;99.90
20208;DHT22;10263;48.716;8.760;2023-05-07T02:58:04;10.10;99.90
20208;DHT22;10263;48.716;8.760;2023-05-07T03:03:11;9.90;99.90
20208;DHT22;10263;48.716;8.760;2023-05-07T03:08:06;10.00;99.90
20208;DHT22;10263;48.716;8.760;2023-05-07T03:10:33;9.80;99.90
20208;DHT22;10263;48.716;8.760;2023-05-07T03:13:00;9.60;99.90
20208;DHT22;10263;48.716;8.760;2023-05-07T03:15:27;9.90;99.90
20208;DHT22;10263;48.716;8.760;2023-05-07T03:17:54;9.80;99.90
20208;DHT22;10263;48.716;8.760;2023-05-07T03:22:48;9.60;99.90
20208;DHT22;10263;48.716;8.760;2023-05-07T03:25:16;9.50;99.90
20208;DHT22;10263;48.716;8.760;2023-05-07T03:27:43;9.60;99.90
20208;DHT22;10263;48.716;8.760;2023-05-07T03:30:11;9.70;99.90
20208;DHT22;10263;48.716;8.760;2023-05-07T03:32:38;9.70;99.90
20208;DHT22;10263;48.716;8.760;2023-05-07T03:35:08;9.60;99.90
20208;DHT22;10263;48.716;8.760;2023-05-07T03:37:35;9.70;99.90
20208;DHT22;10263;48.716;8.760;2023-05-07T03:40:03;9.30;99.90
20208;DHT22;10263;48.716;8.760;2023-05-07T03:42:36;9.60;99.90
20208;DHT22;10263;48.716;8.760;2023-05-07T03:45:03;9.50;99.90
20208;DHT22;10263;48.716;8.760;2023-05-07T03:47:31;9.50;99.90
20208;DHT22;10263;48.716;8.760;2023-05-07T03:49:58;9.60;99.90
20208;DHT22;10263;48.716;8.760;2023-05-07T03:57:22;9.00;99.90
20208;DHT22;10263;48.716;8.760;2023-05-07T03:59:50;9.30;99.90
20208;DHT22;10263;48.716;8.760;2023-05-07T04:02:17;9.40;99.90
20208;DHT22;10263;48.716;8.760;2023-05-07T04:07:11;9.40;99.90
20208;DHT22;10263;48.716;8.760;2023-05-07T04:12:09;9.00;99.90
20208;DHT22;10263;48.716;8.760;2023-05-07T04:14:36;9.30;99.90
20208;DHT22;10263;48.716;8.760;2023-05-07T04:17:04;9.30;99.90
20208;DHT22;10263;48.716;8.760;2023-05-07T04:19:33;9.20;99.90
20208;DHT22;10263;48.716;8.760;2023-05-07T04:22:00;9.20;99.90
20208;DHT22;10263;48.716;8.760;2023-05-07T04:24:31;9.20;99.90
20208;DHT22;10263;48.716;8.760;2023-05-07T04:26:58;10.40;99.90
20208;DHT22;10263;48.716;8.760;2023-05-07T04:29:25;9.30;99.90
20208;DHT22;10263;48.716;8.760;2023-05-07T04:31:53;9.40;99.90
20208;DHT22;10263;48.716;8.760;2023-05-07T04:34:23;9.00;99.90
20208;DHT22;10263;48.716;8.760;2023-05-07T04:36:50;9.60;99.90
20208;DHT22;10263;48.716;8.760;2023-05-07T04:39:17;9.50;99.90
20208;DHT22;10263;48.716;8.760;2023-05-07T04:41:46;9.20;99.90
20208;DHT22;10263;48.716;8.760;2023-05-07T04:44:13;9.20;99.90
20208;DHT22;10263;48.716;8.760;2023-05-07T04:49:07;9.10;99.90
20208;DHT22;10263;48.716;8.760;2023-05-07T04:51:35;9.70;99.90
20208;DHT22;10263;48.716;8.760;2023-05-07T04:54:02;9.40;99.90
20208;DHT22;10263;48.716;8.760;2023-05-07T05:01:27;9.30;99.90
20208;DHT22;10263;48.716;8.760;2023-05-07T05:06:21;9.20;99.90
20208;DHT22;10263;48.716;8.760;2023-05-07T05:08:50;9.50;99.90
20208;DHT22;10263;48.716;8.760;2023-05-07T05:11:17;9.80;99.90
20208;DHT22;10263;48.716;8.760;2023-05-07T05:16:17;9.60;99.90
20208;DHT22;10263;48.716;8.760;2023-05-07T05:18:44;9.70;99.90
20208;DHT22;10263;48.716;8.760;2023-05-07T05:21:13;9.70;99.90
20208;DHT22;10263;48.716;8.760;2023-05-07T05:26:11;10.00;99.90
20208;DHT22;10263;48.716;8.760;2023-05-07T05:28:38;10.20;99.90
20208;DHT22;10263;48.716;8.760;2023-05-07T05:31:05;10.30;99.90
20208;DHT22;10263;48.716;8.760;2023-05-07T05:33:35;10.20;99.90
20208;DHT22;10263;48.716;8.760;2023-05-07T05:36:04;10.50;99.90
20208;DHT22;10263;48.716;8.760;2023-05-07T05:38:32;10.50;99.90
20208;DHT22;10263;48.716;8.760;2023-05-07T05:40:59;10.70;99.90
20208;DHT22;10263;48.716;8.760;2023-05-07T05:43:29;10.70;99.90
20208;DHT22;10263;48.716;8.760;2023-05-07T05:45:57;10.80;99.90
20208;DHT22;10263;48.716;8.760;2023-05-07T05:50:52;10.80;99.90
20208;DHT22;10263;48.716;8.760;2023-05-07T05:53:19;11.20;99.90
20208;DHT22;10263;48.716;8.760;2023-05-07T05:55:46;11.00;99.90
20208;DHT22;10263;48.716;8.760;2023-05-07T05:58:12;11.40;99.90
20208;DHT22;10263;48.716;8.760;2023-05-07T06:00:46;11.60;99.90
20208;DHT22;10263;48.716;8.760;2023-05-07T06:05:42;12.20;99.90
20208;DHT22;10263;48.716;8.760;2023-05-07T06:10:36;12.50;99.90
20208;DHT22;10263;48.716;8.760;2023-05-07T06:13:05;12.40;99.90
20208;DHT22;10263;48.716;8.760;2023-05-07T06:18:07;12.70;99.90
20208;DHT22;10263;48.716;8.760;2023-05-07T06:20:34;12.80;99.90
20208;DHT22;10263;48.716;8.760;2023-05-07T06:25:33;13.00;99.90
20208;DHT22;10263;48.716;8.760;2023-05-07T06:27:59;14.10;99.90
20208;DHT22;10263;48.716;8.760;2023-05-07T06:35:23;16.30;99.90
20208;DHT22;10263;48.716;8.760;2023-05-07T06:40:22;17.30;99.90
20208;DHT22;10263;48.716;8.760;2023-05-07T06:45:27;19.10;99.90
20208;DHT22;10263;48.716;8.760;2023-05-07T06:47:55;19.10;99.90
20208;DHT22;10263;48.716;8.760;2023-05-07T06:50:24;19.70;99.90
20208;DHT22;10263;48.716;8.760;2023-05-07T06:52:55;19.50;99.90
20208;DHT22;10263;48.716;8.760;2023-05-07T06:57:50;20.60;99.90
20208;DHT22;10263;48.716;8.760;2023-05-07T07:00:19;20.70;99.90
20208;DHT22;10263;48.716;8.760;2023-05-07T07:05:23;21.00;99.90
20208;DHT22;10263;48.716;8.760;2023-05-07T07:07:50;21.30;99.90
20208;DHT22;10263;48.716;8.760;2023-05-07T07:10:19;20.90;99.90
20208;DHT22;10263;48.716;8.760;2023-05-07T07:12:46;21.20;99.90
20208;DHT22;10263;48.716;8.760;2023-05-07T07:15:13;20.10;99.90
20208;DHT22;10263;48.716;8.760;2023-05-07T07:17:42;19.80;99.90
20208;DHT22;10263;48.716;8.760;2023-05-07T07:20:10;20.00;99.90
20208;DHT22;10263;48.716;8.760;2023-05-07T07:22:39;19.50;99.90
20208;DHT22;10263;48.716;8.760;2023-05-07T07:25:06;19.70;99.90
20208;DHT22;10263;48.716;8.760;2023-05-07T07:27:33;19.60;99.90
20208;DHT22;10263;48.716;8.760;2023-05-07T07:32:30;19.10;99.90
20208;DHT22;10263;48.716;8.760;2023-05-07T07:34:58;19.50;99.90
20208;DHT22;10263;48.716;8.760;2023-05-07T07:37:26;19.60;99.90
20208;DHT22;10263;48.716;8.760;2023-05-07T07:39:55;19.70;99.90
20208;DHT22;10263;48.716;8.760;2023-05-07T07:42:21;20.20;99.90
20208;DHT22;10263;48.716;8.760;2023-05-07T07:44:48;20.60;99.90
20208;DHT22;10263;48.716;8.760;2023-05-07T07:47:18;21.30;99.90
20208;DHT22;10263;48.716;8.760;2023-05-07T07:52:14;22.20;99.90
20208;DHT22;10263;48.716;8.760;2023-05-07T07:54:44;22.70;99.90
20208;DHT22;10263;48.716;8.760;2023-05-07T07:57:12;22.80;99.90
20208;DHT22;10263;48.716;8.760;2023-05-07T08:02:09;22.90;99.90
20208;DHT22;10263;48.716;8.760;2023-05-07T08:04:36;22.40;99.90
20208;DHT22;10263;48.716;8.760;2023-05-07T08:07:05;22.00;99.90
20208;DHT22;10263;48.716;8.760;2023-05-07T08:09:35;21.70;99.90
20208;DHT22;10263;48.716;8.760;2023-05-07T08:12:04;22.00;99.90
20208;DHT22;10263;48.716;8.760;2023-05-07T08:14:34;22.50;99.90
20208;DHT22;10263;48.716;8.760;2023-05-07T08:17:02;22.90;99.90
20208;DHT22;10263;48.716;8.760;2023-05-07T08:21:58;23.30;99.90
20208;DHT22;10263;48.716;8.760;2023-05-07T08:29:20;23.20;99.90
20208;DHT22;10263;48.716;8.760;2023-05-07T08:31:49;23.10;99.90
20208;DHT22;10263;48.716;8.760;2023-05-07T08:34:15;22.80;99.90
20208;DHT22;10263;48.716;8.760;2023-05-07T08:36:45;23.00;99.90
20208;DHT22;10263;48.716;8.760;2023-05-07T08:41:45;23.60;99.90
20208;DHT22;10263;48.716;8.760;2023-05-07T08:44:13;24.10;99.90
20208;DHT22;10263;48.716;8.760;2023-05-07T08:46:42;23.90;98.90
20208;DHT22;10263;48.716;8.760;2023-05-07T08:49:10;24.20;99.90
20208;DHT22;10263;48.716;8.760;2023-05-07T08:51:37;24.60;99.30
20208;DHT22;10263;48.716;8.760;2023-05-07T08:54:04;25.00;97.00
20208;DHT22;10263;48.716;8.760;2023-05-07T08:56:32;25.10;96.20
20208;DHT22;10263;48.716;8.760;2023-05-07T08:58:59;25.20;95.90
20208;DHT22;10263;48.716;8.760;2023-05-07T09:01:28;24.90;95.60
20208;DHT22;10263;48.716;8.760;2023-05-07T09:03:57;25.00;98.10
20208;DHT22;10263;48.716;8.760;2023-05-07T09:06:27;25.60;96.50
20208;DHT22;10263;48.716;8.760;2023-05-07T09:08:54;25.20;95.40
20208;DHT22;10263;48.716;8.760;2023-05-07T09:11:27;25.00;94.90
20208;DHT22;10263;48.716;8.760;2023-05-07T09:13:57;24.90;94.90
20208;DHT22;10263;48.716;8.760;2023-05-07T09:16:29;24.90;94.10
20208;DHT22;10263;48.716;8.760;2023-05-07T09:18:59;25.20;95.30
20208;DHT22;10263;48.716;8.760;2023-05-07T09:21:27;25.20;94.60
20208;DHT22;10263;48.716;8.760;2023-05-07T09:23:57;25.60;94.60
20208;DHT22;10263;48.716;8.760;2023-05-07T09:29:00;26.50;93.50
20208;DHT22;10263;48.716;8.760;2023-05-07T09:31:28;26.80;93.40
20208;DHT22;10263;48.716;8.760;2023-05-07T09:38:53;28.50;88.20
20208;DHT22;10263;48.716;8.760;2023-05-07T09:43:55;28.80;88.70
20208;DHT22;10263;48.716;8.760;2023-05-07T09:46:30;29.60;87.80
20208;DHT22;10263;48.716;8.760;2023-05-07T09:49:02;28.80;84.10
20208;DHT22;10263;48.716;8.760;2023-05-07T09:51:41;29.10;86.40
20208;DHT22;10263;48.716;8.760;2023-05-07T09:54:11;30.00;85.70
20208;DHT22;10263;48.716;8.760;2023-05-07T09:56:40;30.30;82.20
20208;DHT22;10263;48.716;8.760;2023-05-07T09:59:11;30.30;83.50
20208;DHT22;10263;48.716;8.760;2023-05-07T10:01:41;30.60;79.30
20208;DHT22;10263;48.716;8.760;2023-05-07T10:04:08;30.70;79.80
20208;DHT22;10263;48.716;8.760;2023-05-07T10:06:37;31.60;78.80
20208;DHT22;10263;48.716;8.760;2023-05-07T10:09:05;31.50;73.40
20208;DHT22;10263;48.716;8.760;2023-05-07T10:11:34;30.80;70.70
20208;DHT22;10263;48.716;8.760;2023-05-07T10:14:02;31.10;70.50
20208;DHT22;10263;48.716;8.760;2023-05-07T10:16:31;31.30;67.00
20208;DHT22;10263;48.716;8.760;2023-05-07T10:19:02;31.10;70.00
20208;DHT22;10263;48.716;8.760;2023-05-07T10:21:29;31.30;69.80
20208;DHT22;10263;48.716;8.760;2023-05-07T10:24:04;30.90;72.80
20208;DHT22;10263;48.716;8.760;2023-05-07T10:26:35;31.80;70.20
20208;DHT22;10263;48.716;8.760;2023-05-07T10:29:05;31.10;70.70
20208;DHT22;10263;48.716;8.760;2023-05-07T10:34:34;29.40;70.00
20208;DHT22;10263;48.716;8.760;2023-05-07T10:37:03;29.30;72.00
20208;DHT22;10263;48.716;8.760;2023-05-07T10:39:31;28.10;70.90
20208;DHT22;10263;48.716;8.760;2023-05-07T10:42:09;27.60;67.60
20208;DHT22;10263;48.716;8.760;2023-05-07T10:44:37;27.00;73.30
20208;DHT22;10263;48.716;8.760;2023-05-07T10:47:09;27.10;72.00
20208;DHT22;10263;48.716;8.760;2023-05-07T10:52:43;26.40;78.80
20208;DHT22;10263;48.716;8.760;2023-05-07T10:55:21;26.40;83.10
20208;DHT22;10263;48.716;8.760;2023-05-07T10:58:25;26.30;83.00
20208;DHT22;10263;48.716;8.760;2023-05-07T11:00:59;25.30;84.80
20208;DHT22;10263;48.716;8.760;2023-05-07T11:06:12;25.30;85.80
20208;DHT22;10263;48.716;8.760;2023-05-07T11:11:47;25.00;91.50
20208;DHT22;10263;48.716;8.760;2023-05-07T11:14:46;24.20;90.30
20208;DHT22;10263;48.716;8.760;2023-05-07T11:17:18;24.40;92.80
20208;DHT22;10263;48.716;8.760;2023-05-07T11:19:51;23.60;92.90
20208;DHT22;10263;48.716;8.760;2023-05-07T11:22:42;21.90;92.60
20208;DHT22;10263;48.716;8.760;2023-05-07T11:25:32;23.40;95.20
20208;DHT22;10263;48.716;8.760;2023-05-07T11:28:10;23.40;96.40
20208;DHT22;10263;48.716;8.760;2023-05-07T11:30:43;23.10;96.40
20208;DHT22;10263;48.716;8.760;2023-05-07T11:33:17;22.60;97.30
20208;DHT22;10263;48.716;8.760;2023-05-07T11:35:45;22.70;99.90
20208;DHT22;10263;48.716;8.760;2023-05-07T11:38:14;22.00;99.90
20208;DHT22;10263;48.716;8.760;2023-05-07T11:40:49;22.30;99.90
20208;DHT22;10263;48.716;8.760;2023-05-07T11:43:16;22.20;99.90
20208;DHT22;10263;48.716;8.760;2023-05-07T11:45:44;21.50;99.90
20208;DHT22;10263;48.716;8.760;2023-05-07T11:48:12;21.20;99.90
20208;DHT22;10263;48.716;8.760;2023-05-07T11:50:50;20.50;99.90
20208;DHT22;10263;48.716;8.760;2023-05-07T11:53:18;21.00;99.90
20208;DHT22;10263;48.716;8.760;2023-05-07T11:58:18;19.80;99.90
20208;DHT22;10263;48.716;8.760;2023-05-07T12:00:49;20.20;99.90
20208;DHT22;10263;48.716;8.760;2023-05-07T12:05:44;20.20;99.90
20208;DHT22;10263;48.716;8.760;2023-05-07T12:08:14;19.70;99.90
20208;DHT22;10263;48.716;8.760;2023-05-07T12:10:41;19.10;99.90
20208;DHT22;10263;48.716;8.760;2023-05-07T12:13:14;19.10;99.90
20208;DHT22;10263;48.716;8.760;2023-05-07T12:18:10;19.20;99.90
20208;DHT22;10263;48.716;8.760;2023-05-07T12:20:38;19.40;99.90
20208;DHT22;10263;48.716;8.760;2023-05-07T12:23:05;19.50;99.90
20208;DHT22;10263;48.716;8.760;2023-05-07T12:25:34;19.80;99.90
20208;DHT22;10263;48.716;8.760;2023-05-07T12:28:02;19.70;99.90
20208;DHT22;10263;48.716;8.760;2023-05-07T12:30:30;19.80;99.90
20208;DHT22;10263;48.716;8.760;2023-05-07T12:32:57;19.30;99.90
20208;DHT22;10263;48.716;8.760;2023-05-07T12:35:29;19.20;99.90
20208;DHT22;10263;48.716;8.760;2023-05-07T12:37:56;18.60;99.90
20208;DHT22;10263;48.716;8.760;2023-05-07T12:40:34;18.30;99.90
20208;DHT22;10263;48.716;8.760;2023-05-07T12:45:28;18.20;99.90
20208;DHT22;10263;48.716;8.760;2023-05-07T12:47:55;18.40;99.90
20208;DHT22;10263;48.716;8.760;2023-05-07T12:50:23;18.10;99.90
20208;DHT22;10263;48.716;8.760;2023-05-07T12:52:51;17.70;99.90
20208;DHT22;10263;48.716;8.760;2023-05-07T12:55:18;17.50;99.90
20208;DHT22;10263;48.716;8.760;2023-05-07T12:57:48;17.80;99.90
20208;DHT22;10263;48.716;8.760;2023-05-07T13:00:16;17.60;99.90
20208;DHT22;10263;48.716;8.760;2023-05-07T13:02:44;17.30;99.90
20208;DHT22;10263;48.716;8.760;2023-05-07T13:05:10;17.40;99.90
20208;DHT22;10263;48.716;8.760;2023-05-07T13:07:37;17.60;99.90
20208;DHT22;10263;48.716;8.760;2023-05-07T13:10:07;17.30;99.90
20208;DHT22;10263;48.716;8.760;2023-05-07T13:12:34;16.90;99.90
20208;DHT22;10263;48.716;8.760;2023-05-07T13:15:01;17.30;99.90
20208;DHT22;10263;48.716;8.760;2023-05-07T13:17:27;17.00;99.90
20208;DHT22;10263;48.716;8.760;2023-05-07T13:19:56;16.30;99.90
20208;DHT22;10263;48.716;8.760;2023-05-07T13:22:22;16.70;99.90
20208;DHT22;10263;48.716;8.760;2023-05-07T13:24:49;15.90;99.90
20208;DHT22;10263;48.716;8.760;2023-05-07T13:27:17;15.70;99.90
20208;DHT22;10263;48.716;8.760;2023-05-07T13:29:44;15.80;99.90
20208;DHT22;10263;48.716;8.760;2023-05-07T13:34:38;15.90;99.90
20208;DHT22;10263;48.716;8.760;2023-05-07T13:37:05;15.60;99.90
20208;DHT22;10263;48.716;8.760;2023-05-07T13:39:33;15.70;99.90
20208;DHT22;10263;48.716;8.760;2023-05-07T13:41:59;15.50;99.90
20208;DHT22;10263;48.716;8.760;2023-05-07T13:44:28;15.30;99.90
20208;DHT22;10263;48.716;8.760;2023-05-07T13:46:54;15.50;99.90
20208;DHT22;10263;48.716;8.760;2023-05-07T13:49:21;15.40;99.90
20208;DHT22;10263;48.716;8.760;2023-05-07T13:51:50;15.60;99.90
20208;DHT22;10263;48.716;8.760;2023-05-07T13:54:16;15.00;99.90
20208;DHT22;10263;48.716;8.760;2023-05-07T13:56:43;15.40;99.90
20208;DHT22;10263;48.716;8.760;2023-05-07T14:01:41;15.10;99.90
20208;DHT22;10263;48.716;8.760;2023-05-07T14:04:07;15.30;99.90
20208;DHT22;10263;48.716;8.760;2023-05-07T14:09:01;15.10;99.90
20208;DHT22;10263;48.716;8.760;2023-05-07T14:13:55;15.30;99.90
20208;DHT22;10263;48.716;8.760;2023-05-07T14:16:23;15.40;99.90
20208;DHT22;10263;48.716;8.760;2023-05-07T14:18:52;14.90;99.90
20208;DHT22;10263;48.716;8.760;2023-05-07T14:21:18;15.40;99.90
20208;DHT22;10263;48.716;8.760;2023-05-07T14:23:45;15.00;99.90
20208;DHT22;10263;48.716;8.760;2023-05-07T14:28:39;15.60;99.90
20208;DHT22;10263;48.716;8.760;2023-05-07T14:31:11;15.70;99.90
20208;DHT22;10263;48.716;8.760;2023-05-07T14:36:07;15.70;99.90
20208;DHT22;10263;48.716;8.760;2023-05-07T14:38:33;15.20;99.90
20208;DHT22;10263;48.716;8.760;2023-05-07T14:41:00;16.00;99.90
20208;DHT22;10263;48.716;8.760;2023-05-07T14:45:54;16.00;99.90
20208;DHT22;10263;48.716;8.760;2023-05-07T14:48:21;15.70;99.90
20208;DHT22;10263;48.716;8.760;2023-05-07T14:53:16;16.10;99.90
20208;DHT22;10263;48.716;8.760;2023-05-07T14:58:10;16.10;99.90
20208;DHT22;10263;48.716;8.760;2023-05-07T15:03:06;15.70;99.90
20208;DHT22;10263;48.716;8.760;2023-05-07T15:05:33;15.70;99.90
20208;DHT22;10263;48.716;8.760;2023-05-07T15:08:00;16.00;99.90
20208;DHT22;10263;48.716;8.760;2023-05-07T15:10:28;15.90;99.90
20208;DHT22;10263;48.716;8.760;2023-05-07T15:12:55;16.10;99.90
20208;DHT22;10263;48.716;8.760;2023-05-07T15:15:22;15.70;99.90
20208;DHT22;10263;48.716;8.760;2023-05-07T15:17:49;16.20;99.90
20208;DHT22;10263;48.716;8.760;2023-05-07T15:22:43;16.10;99.90
20208;DHT22;10263;48.716;8.760;2023-05-07T15:25:10;16.10;99.90
20208;DHT22;10263;48.716;8.760;2023-05-07T15:27:38;16.50;99.90
20208;DHT22;10263;48.716;8.760;2023-05-07T15:30:06;16.40;99.90
20208;DHT22;10263;48.716;8.760;2023-05-07T15:35:04;16.70;99.90
20208;DHT22;10263;48.716;8.760;2023-05-07T15:37:31;16.70;99.90
20208;DHT22;10263;48.716;8.760;2023-05-07T15:39:58;16.50;99.90
20208;DHT22;10263;48.716;8.760;2023-05-07T15:42:24;16.20;99.90
20208;DHT22;10263;48.716;8.760;2023-05-07T15:44:52;16.70;99.90
20208;DHT22;10263;48.716;8.760;2023-05-07T15:49:46;16.50;99.90
20208;DHT22;10263;48.716;8.760;2023-05-07T15:52:13;16.80;99.90
20208;DHT22;10263;48.716;8.760;2023-05-07T15:54:41;17.40;99.90
20208;DHT22;10263;48.716;8.760;2023-05-07T15:57:08;17.10;99.90
20208;DHT22;10263;48.716;8.760;2023-05-07T15:59:36;17.40;99.90
20208;DHT22;10263;48.716;8.760;2023-05-07T16:02:04;17.30;99.90
20208;DHT22;10263;48.716;8.760;2023-05-07T16:04:31;16.70;99.90
20208;DHT22;10263;48.716;8.760;2023-05-07T16:06:57;16.90;99.90
20208;DHT22;10263;48.716;8.760;2023-05-07T16:11:53;17.20;99.90
20208;DHT22;10263;48.716;8.760;2023-05-07T16:19:16;16.90;99.90
20208;DHT22;10263;48.716;8.760;2023-05-07T16:21:43;16.90;99.90
20208;DHT22;10263;48.716;8.760;2023-05-07T16:24:10;17.10;99.90
20208;DHT22;10263;48.716;8.760;2023-05-07T16:26:37;16.70;99.90
20208;DHT22;10263;48.716;8.760;2023-05-07T16:29:03;17.60;99.90
20208;DHT22;10263;48.716;8.760;2023-05-07T16:31:31;17.40;99.90
20208;DHT22;10263;48.716;8.760;2023-05-07T16:33:58;17.10;99.90
20208;DHT22;10263;48.716;8.760;2023-05-07T16:36:28;17.10;99.90
20208;DHT22;10263;48.716;8.760;2023-05-07T16:38:54;17.50;99.90
20208;DHT22;10263;48.716;8.760;2023-05-07T16:41:21;17.00;99.90
20208;DHT22;10263;48.716;8.760;2023-05-07T16:43:48;17.10;99.90
20208;DHT22;10263;48.716;8.760;2023-05-07T16:46:15;17.40;99.90
20208;DHT22;10263;48.716;8.760;2023-05-07T16:48:42;17.30;99.90
20208;DHT22;10263;48.716;8.760;2023-05-07T16:51:09;17.40;99.90
20208;DHT22;10263;48.716;8.760;2023-05-07T16:56:04;17.00;99.90
20208;DHT22;10263;48.716;8.760;2023-05-07T16:58:31;17.00;99.90
20208;DHT22;10263;48.716;8.760;2023-05-07T17:00:58;17.50;99.90
20208;DHT22;10263;48.716;8.760;2023-05-07T17:08:20;17.10;99.90
20208;DHT22;10263;48.716;8.760;2023-05-07T17:10:48;17.00;99.90
20208;DHT22;10263;48.716;8.760;2023-05-07T17:13:15;17.20;99.90
20208;DHT22;10263;48.716;8.760;2023-05-07T17:15:42;16.40;99.90
20208;DHT22;10263;48.716;8.760;2023-05-07T17:20:38;16.80;99.90
20208;DHT22;10263;48.716;8.760;2023-05-07T17:25:33;16.50;99.90
20208;DHT22;10263;48.716;8.760;2023-05-07T17:28:01;16.60;99.90
20208;DHT22;10263;48.716;8.760;2023-05-07T17:30:28;16.60;99.90
20208;DHT22;10263;48.716;8.760;2023-05-07T17:35:22;16.40;99.90
20208;DHT22;10263;48.716;8.760;2023-05-07T17:40:19;16.50;99.90
20208;DHT22;10263;48.716;8.760;2023-05-07T17:42:46;16.80;99.90
20208;DHT22;10263;48.716;8.760;2023-05-07T17:45:15;16.40;99.90
20208;DHT22;10263;48.716;8.760;2023-05-07T17:47:42;16.60;99.90
20208;DHT22;10263;48.716;8.760;2023-05-07T17:50:09;16.40;99.90
20208;DHT22;10263;48.716;8.760;2023-05-07T17:52:37;16.50;99.90
20208;DHT22;10263;48.716;8.760;2023-05-07T17:55:04;16.60;99.90
20208;DHT22;10263;48.716;8.760;2023-05-07T17:57:32;16.40;99.90
20208;DHT22;10263;48.716;8.760;2023-05-07T18:00:00;16.40;99.90
20208;DHT22;10263;48.716;8.760;2023-05-07T18:02:28;16.50;99.90
20208;DHT22;10263;48.716;8.760;2023-05-07T18:04:55;16.60;99.90
20208;DHT22;10263;48.716;8.760;2023-05-07T18:07:22;16.40;99.90
20208;DHT22;10263;48.716;8.760;2023-05-07T18:12:15;16.40;99.90
20208;DHT22;10263;48.716;8.760;2023-05-07T18:14:42;16.00;99.90
20208;DHT22;10263;48.716;8.760;2023-05-07T18:17:09;16.10;99.90
20208;DHT22;10263;48.716;8.760;2023-05-07T18:19:37;15.80;99.90
20208;DHT22;10263;48.716;8.760;2023-05-07T18:22:04;16.20;99.90
20208;DHT22;10263;48.716;8.760;2023-05-07T18:24:31;15.80;99.90
20208;DHT22;10263;48.716;8.760;2023-05-07T18:26:57;15.80;99.90
20208;DHT22;10263;48.716;8.760;2023-05-07T18:29:24;16.00;99.90
20208;DHT22;10263;48.716;8.760;2023-05-07T18:31:51;15.70;99.90
20208;DHT22;10263;48.716;8.760;2023-05-07T18:36:46;16.00;99.90
20208;DHT22;10263;48.716;8.760;2023-05-07T18:41:40;15.70;99.90
20208;DHT22;10263;48.716;8.760;2023-05-07T18:44:07;15.30;99.90
20208;DHT22;10263;48.716;8.760;2023-05-07T18:49:01;15.70;99.90
20208;DHT22;10263;48.716;8.760;2023-05-07T18:53:56;15.50;99.90
20208;DHT22;10263;48.716;8.760;2023-05-07T18:56:23;15.70;99.90
20208;DHT22;10263;48.716;8.760;2023-05-07T18:58:49;15.20;99.90
20208;DHT22;10263;48.716;8.760;2023-05-07T19:01:16;15.40;99.90